Cecilville, California
Current Conditions -  °F | °C
As of 2:15 AM on Saturday 22 Nov 2014 (Local Time) from KO86 Reporting Station
Overcast Overcast  
Wind Chill: 45°   Ceiling: 1700
Heat Index: 45°   Visibility: 3mi
Dew Point: 45°   Wind: 0mph
Humidity: 100%   Direction: NA
Pressure: 29.96"   Gusts: NA
Location:  41.14°N, 123.14°W
Report Text: KO86 221015Z AUTO 00000KT 3SM SCT005 BKN017 OVC025 07/07 A2996 RMK AO1 P0004
Loading
Personal Weather Stations






























Interactive Weather Map New forecast layout! Learn more

10-Day Weather Forecast

Advertisements
Track Severe Weather on mobile